Time;durP1;ratioP1;P1;durP2;ratioP2;P2;SDS_P1;SDS_P2;PMS_P1;PMS_P2;Temp;Humidity;BMP_temperature;BMP_pressure;BME280_temperature;BME280_humidity;BME280_pressure;Samples;Min_cycle;Max_cycle;Signal;HPM_P1;HPM_P2
2022/06/04 00:01:54;;;;;;;6.45;4.18;;;;;;;19.75;100.00;96408.19;5046032;28;20064;-51
2022/06/04 00:04:23;;;;;;;6.07;4.47;;;;;;;19.76;100.00;96414.34;5044120;28;20071;-55
2022/06/04 00:06:51;;;;;;;5.72;4.38;;;;;;;19.87;100.00;96413.75;5046553;28;20072;-50
2022/06/04 00:09:21;;;;;;;5.60;4.07;;;;;;;19.76;100.00;96415.16;5048075;28;20068;-53
2022/06/04 00:17:23;;;;;;;5.70;4.10;;;;;;;20.00;100.00;96415.63;5044392;28;20072;-55
2022/06/04 00:19:52;;;;;;;5.57;3.95;;;;;;;19.86;100.00;96404.06;5045207;28;20091;-54
2022/06/04 00:22:20;;;;;;;66.15;5.95;;;;;;;19.41;100.00;96414.44;5045589;28;20072;-55
2022/06/04 00:24:49;;;;;;;40.53;4.38;;;;;;;19.32;100.00;96411.09;5042940;28;20076;-57
2022/06/04 00:27:21;;;;;;;51.80;4.20;;;;;;;19.33;100.00;96414.59;5045742;28;20068;-50
2022/06/04 00:29:49;;;;;;;62.38;4.15;;;;;;;19.20;100.00;96418.03;5046235;28;20068;-57
2022/06/04 00:32:18;;;;;;;58.15;4.03;;;;;;;19.70;100.00;96407.94;5046412;28;20069;-54
2022/06/04 00:34:47;;;;;;;21.65;2.45;;;;;;;19.78;100.00;96414.94;5044538;28;20061;-52
2022/06/04 00:37:15;;;;;;;9.02;1.92;;;;;;;19.75;100.00;96416.22;5045967;28;20085;-48
2022/06/04 00:39:45;;;;;;;10.95;1.85;;;;;;;19.61;100.00;96407.31;5047302;28;20479;-49
2022/06/04 00:42:17;;;;;;;16.13;2.10;;;;;;;19.60;100.00;96410.97;5046144;28;20064;-51
2022/06/04 00:45:30;;;;;;;5.47;1.80;;;;;;;19.57;100.00;96398.00;5045767;28;20667;-51
2022/06/04 00:48:01;;;;;;;8.50;1.65;;;;;;;19.50;100.00;96396.34;5047378;28;20063;-56
2022/06/04 00:50:31;;;;;;;45.17;3.08;;;;;;;19.48;100.00;96393.03;5043883;28;20064;-51
2022/06/04 00:53:03;;;;;;;33.33;3.65;;;;;;;19.34;100.00;96398.38;5042895;28;20649;-51
2022/06/04 00:55:38;;;;;;;37.33;2.67;;;;;;;19.29;100.00;96394.66;5043682;28;20068;-50
2022/06/04 00:58:18;;;;;;;70.35;4.35;;;;;;;19.03;100.00;96396.22;5046305;28;20096;-53
2022/06/04 01:00:51;;;;;;;40.88;3.25;;;;;;;19.10;100.00;96399.72;5044922;28;20463;-49
2022/06/04 01:03:33;;;;;;;23.98;2.92;;;;;;;19.10;100.00;96406.94;5045800;28;20079;-53
2022/06/04 01:06:15;;;;;;;21.50;2.30;;;;;;;19.12;100.00;96408.34;5039912;28;20069;-54
2022/06/04 01:09:07;;;;;;;43.03;3.63;;;;;;;18.99;100.00;96402.94;5042104;28;20535;-54
2022/06/04 01:14:35;;;;;;;8.35;2.47;;;;;;;18.53;100.00;96416.84;5042753;28;20065;-54
2022/06/04 01:17:11;;;;;;;14.68;3.03;;;;;;;18.59;100.00;96417.94;5046150;28;20542;-51
2022/06/04 01:19:54;;;;;;;24.80;3.65;;;;;;;18.61;100.00;96423.88;5045764;28;20064;-51
2022/06/04 01:22:38;;;;;;;24.38;3.70;;;;;;;18.66;100.00;96432.97;5041793;28;20566;-56
2022/06/04 01:25:19;;;;;;;38.90;4.30;;;;;;;18.34;100.00;96428.22;5040621;28;20179;-53
2022/06/04 01:27:53;;;;;;;13.73;3.55;;;;;;;18.19;100.00;96422.97;5046117;28;20072;-56
2022/06/04 01:30:24;;;;;;;20.45;4.15;;;;;;;18.42;100.00;96426.22;5045007;28;20060;-50
2022/06/04 01:32:56;;;;;;;22.88;4.40;;;;;;;18.27;100.00;96428.16;5043220;28;20459;-55
2022/06/04 01:35:28;;;;;;;24.70;4.32;;;;;;;18.14;100.00;96420.88;5045711;28;20134;-56
2022/06/04 01:37:58;;;;;;;15.55;4.07;;;;;;;18.65;100.00;96423.31;5045635;28;20081;-52
2022/06/04 01:43:21;;;;;;;10.35;3.35;;;;;;;18.73;100.00;96423.19;5045281;28;20068;-55
2022/06/04 01:45:51;;;;;;;13.65;3.17;;;;;;;18.78;100.00;96422.56;5044343;28;20073;-54
2022/06/04 01:48:20;;;;;;;8.63;2.30;;;;;;;18.75;100.00;96420.28;5047029;28;20071;-56
2022/06/04 01:50:51;;;;;;;8.65;2.80;;;;;;;18.68;100.00;96419.41;5045078;28;20866;-55
2022/06/04 01:53:22;;;;;;;12.30;2.78;;;;;;;18.64;100.00;96423.50;5046665;28;20065;-57
2022/06/04 01:55:55;;;;;;;15.05;3.08;;;;;;;18.63;100.00;96425.34;5044527;28;20060;-53
2022/06/04 01:58:28;;;;;;;9.93;2.75;;;;;;;18.59;100.00;96421.41;5045664;28;20067;-54
2022/06/04 02:00:59;;;;;;;7.35;2.47;;;;;;;18.36;100.00;96418.19;5047294;28;20072;-48
2022/06/04 02:03:32;;;;;;;13.88;3.03;;;;;;;18.14;100.00;96422.75;5042824;28;20444;-55
2022/06/04 02:06:04;;;;;;;37.33;3.70;;;;;;;18.10;100.00;96416.09;5042611;28;20072;-53
2022/06/04 02:08:34;;;;;;;39.80;4.13;;;;;;;18.09;100.00;96417.97;5043871;28;20083;-54
2022/06/04 02:11:04;;;;;;;;;;;;;;;18.02;100.00;96409.06;5042387;28;20069;-56
2022/06/04 02:13:35;;;;;;;24.77;3.58;;;;;;;18.22;100.00;96411.91;5045262;28;19960;-53
2022/06/04 02:16:09;;;;;;;9.25;3.35;;;;;;;18.29;100.00;96406.63;5042437;28;20442;-55
2022/06/04 02:18:38;;;;;;;14.07;3.45;;;;;;;18.08;100.00;96407.50;5040283;28;20075;-55
2022/06/04 02:21:07;;;;;;;5.95;3.20;;;;;;;18.12;100.00;96404.22;5041838;28;20127;-55
2022/06/04 02:23:35;;;;;;;3.47;3.00;;;;;;;18.21;100.00;96404.94;5043871;28;20063;-53
2022/06/04 02:26:04;;;;;;;4.00;3.03;;;;;;;18.06;100.00;96405.00;5040815;28;20526;-47
2022/06/04 02:28:36;;;;;;;3.88;2.85;;;;;;;18.25;100.00;96399.00;5046568;28;20475;-53
2022/06/04 02:31:08;;;;;;;6.57;3.40;;;;;;;17.91;100.00;96398.94;5043739;28;20092;-51
2022/06/04 02:33:42;;;;;;;3.63;3.30;;;;;;;18.05;100.00;96408.69;5045348;28;20084;-53
2022/06/04 02:36:15;;;;;;;10.05;3.90;;;;;;;17.72;100.00;96406.53;5043630;28;20076;-52
2022/06/04 02:38:46;;;;;;;8.20;3.65;;;;;;;17.88;100.00;96408.13;5044637;28;20072;-49
2022/06/04 02:41:18;;;;;;;4.78;3.85;;;;;;;18.29;100.00;96399.44;5046693;28;20068;-53
2022/06/04 02:43:50;;;;;;;63.88;5.65;;;;;;;17.71;100.00;96396.88;5048947;28;20083;-52
2022/06/04 02:46:23;;;;;;;41.60;4.30;;;;;;;17.27;100.00;96400.53;5047650;28;20446;-53
2022/06/04 02:48:59;;;;;;;74.03;5.70;;;;;;;17.51;100.00;96407.31;5041812;28;20089;-52
2022/06/04 02:51:32;;;;;;;51.47;5.07;;;;;;;18.01;100.00;96408.25;5028073;28;20488;-52
2022/06/04 02:54:02;;;;;;;19.52;4.00;;;;;;;18.18;100.00;96403.47;5043212;28;20071;-53
2022/06/04 02:56:31;;;;;;;;;;;;;;;17.84;100.00;96400.72;5049315;28;22621;-54
2022/06/04 02:59:04;;;;;;;7.30;4.30;;;;;;;18.07;100.00;96409.34;5047862;28;19960;-55
2022/06/04 03:01:36;;;;;;;8.40;3.63;;;;;;;18.15;100.00;96411.03;5046006;28;20091;-52
2022/06/04 03:04:05;;;;;;;23.92;3.90;;;;;;;17.60;100.00;96412.56;5048500;28;20569;-55
2022/06/04 03:06:34;;;;;;;11.10;3.15;;;;;;;17.92;100.00;96422.72;5045137;28;20064;-50
2022/06/04 03:09:05;;;;;;;3.28;2.80;;;;;;;18.33;100.00;96426.56;5046905;28;20084;-54
2022/06/04 03:11:36;;;;;;;5.85;2.88;;;;;;;18.18;100.00;96414.16;5045628;28;20094;-54
2022/06/04 03:14:06;;;;;;;4.78;2.45;;;;;;;17.64;100.00;96421.81;5048989;28;20071;-53
2022/06/04 03:16:36;;;;;;;23.45;2.95;;;;;;;17.26;100.00;96422.84;5045533;28;20093;-52
2022/06/04 03:19:07;;;;;;;10.32;2.38;;;;;;;17.54;100.00;96417.63;5047897;28;20092;-53
2022/06/04 03:21:35;;;;;;;;;;;;;;;17.27;100.00;96419.19;5048845;28;20081;-51
2022/06/04 03:24:04;;;;;;;13.10;2.47;;;;;;;17.25;100.00;96417.72;5047301;28;19967;-50
2022/06/04 03:26:32;;;;;;;4.82;2.92;;;;;;;17.47;100.00;96421.22;5046863;28;20073;-51
2022/06/04 03:29:01;;;;;;;10.27;3.05;;;;;;;17.52;100.00;96425.00;5047130;28;20080;-55
2022/06/04 03:31:31;;;;;;;12.50;3.80;;;;;;;17.61;100.00;96422.19;5047264;28;20484;-50
2022/06/04 03:34:00;;;;;;;18.55;4.05;;;;;;;18.10;100.00;96422.31;5048208;28;20045;-53
2022/06/04 03:36:28;;;;;;;6.28;3.00;;;;;;;18.38;100.00;96421.50;5043404;28;20107;-51
2022/06/04 03:38:57;;;;;;;14.15;3.70;;;;;;;18.63;100.00;96432.53;5044517;28;20072;-53
2022/06/04 03:41:25;;;;;;;24.17;4.20;;;;;;;18.32;100.00;96430.25;5046554;28;20072;-56
2022/06/04 03:43:54;;;;;;;16.98;3.78;;;;;;;18.49;100.00;96429.78;5046917;28;20172;-50
2022/06/04 03:46:25;;;;;;;14.95;2.88;;;;;;;18.70;100.00;96436.06;5046322;28;20065;-55
2022/06/04 03:48:56;;;;;;;9.27;2.97;;;;;;;18.95;100.00;96425.75;5048623;28;20480;-56
2022/06/04 03:51:27;;;;;;;22.63;3.50;;;;;;;19.05;100.00;96418.19;5044924;28;20079;-54
2022/06/04 03:53:56;;;;;;;7.10;3.03;;;;;;;19.30;100.00;96429.19;5046795;28;20060;-55
2022/06/04 03:56:25;;;;;;;10.70;2.92;;;;;;;19.48;100.00;96417.09;5046562;28;20072;-54
2022/06/04 03:58:54;;;;;;;9.77;2.58;;;;;;;19.45;100.00;96427.22;5046262;28;20067;-51
2022/06/04 04:01:27;;;;;;;14.35;2.80;;;;;;;19.45;100.00;96431.72;5042249;28;20538;-55
2022/06/04 04:03:58;;;;;;;6.20;2.53;;;;;;;19.57;100.00;96423.94;5045153;28;20083;-53
2022/06/04 04:06:28;;;;;;;9.15;2.10;;;;;;;19.45;100.00;96424.53;5046985;28;20072;-48
2022/06/04 04:08:58;;;;;;;5.53;2.17;;;;;;;19.29;100.00;96430.22;5042507;28;20109;-51
2022/06/04 04:11:28;;;;;;;4.18;2.00;;;;;;;19.27;100.00;96429.63;5045460;28;20072;-48
2022/06/04 04:13:56;;;;;;;5.80;2.38;;;;;;;19.43;100.00;96431.09;5046771;28;20542;-48
2022/06/04 04:16:24;;;;;;;17.98;2.90;;;;;;;19.38;100.00;96422.88;5045332;28;20075;-55
2022/06/04 04:18:53;;;;;;;8.68;2.58;;;;;;;19.96;100.00;96427.72;5040806;28;20130;-48
2022/06/04 04:21:23;;;;;;;6.50;2.47;;;;;;;20.23;100.00;96421.38;5043452;28;20519;-53
2022/06/04 04:23:51;;;;;;;9.77;2.67;;;;;;;20.16;100.00;96425.91;5045434;28;20067;-50
2022/06/04 04:26:20;;;;;;;6.97;2.60;;;;;;;20.17;100.00;96411.50;5045729;28;20072;-54
2022/06/04 04:28:49;;;;;;;6.43;2.40;;;;;;;20.23;100.00;96415.19;5045718;28;20581;-46
2022/06/04 04:31:19;;;;;;;6.43;2.42;;;;;;;20.66;100.00;96422.81;5044251;28;20104;-51
2022/06/04 04:33:48;;;;;;;;;;;;;;;21.00;100.00;96419.84;5046041;28;20060;-53
2022/06/04 04:36:16;;;;;;;13.18;2.83;;;;;;;21.06;100.00;96423.56;5045129;28;19948;-55
2022/06/04 04:38:46;;;;;;;12.68;3.05;;;;;;;21.44;100.00;96420.09;5045003;28;20073;-53
2022/06/04 04:41:16;;;;;;;31.10;3.90;;;;;;;21.42;100.00;96419.50;5045492;28;20073;-57
2022/06/04 04:43:44;;;;;;;29.58;3.53;;;;;;;21.00;100.00;96419.03;5045451;28;20072;-49
2022/06/04 04:46:14;;;;;;;38.88;4.05;;;;;;;21.15;100.00;96405.34;5045772;28;20091;-53
2022/06/04 04:48:44;;;;;;;12.00;3.88;;;;;;;20.91;100.00;96404.19;5045489;28;20099;-55
2022/06/04 04:51:15;;;;;;;28.63;4.07;;;;;;;21.00;100.00;96405.63;5041654;28;20475;-50
2022/06/04 04:53:44;;;;;;;38.88;4.05;;;;;;;21.47;100.00;96400.88;5043130;28;20057;-51
2022/06/04 04:56:16;;;;;;;38.80;3.95;;;;;;;21.67;100.00;96404.28;5041237;28;20130;-51
2022/06/04 04:58:45;;;;;;;28.17;4.60;;;;;;;22.66;100.00;96404.56;5045014;28;20072;-56
2022/06/04 05:01:15;;;;;;;18.27;4.22;;;;;;;23.17;100.00;96404.25;5042292;28;20107;-50
2022/06/04 05:03:44;;;;;;;12.48;4.10;;;;;;;22.83;100.00;96405.63;5037396;28;20084;-50
2022/06/04 05:06:14;;;;;;;8.33;3.93;;;;;;;24.70;100.00;96407.38;5044555;28;20068;-51
2022/06/04 05:08:43;;;;;;;5.22;3.47;;;;;;;25.40;100.00;96390.28;5047942;28;20511;-51
2022/06/04 05:11:14;;;;;;;9.68;3.70;;;;;;;25.23;100.00;96387.53;5047902;28;20494;-54
2022/06/04 05:13:43;;;;;;;;;;;;;;;25.53;100.00;96390.00;5051112;28;20052;-56
2022/06/04 05:16:12;;;;;;;9.23;3.40;;;;;;;25.94;100.00;96393.47;5052682;28;19956;-50
2022/06/04 05:18:40;;;;;;;8.40;3.65;;;;;;;25.89;100.00;96395.28;5048728;28;20690;-58
2022/06/04 05:21:11;;;;;;;4.72;3.08;;;;;;;26.42;100.00;96393.97;5043238;28;20519;-50
2022/06/04 05:23:40;;;;;;;5.47;3.45;;;;;;;26.45;100.00;96409.72;5040183;28;20080;-58
2022/06/04 05:26:08;;;;;;;4.88;3.47;;;;;;;26.49;100.00;96413.59;5044776;28;20061;-52
2022/06/04 05:28:36;;;;;;;3.47;3.17;;;;;;;26.50;100.00;96420.66;5043168;28;20083;-54
2022/06/04 05:31:06;;;;;;;3.55;3.17;;;;;;;26.33;100.00;96415.22;5042419;28;20123;-56
2022/06/04 05:33:35;;;;;;;3.75;3.00;;;;;;;25.99;100.00;96419.78;5044402;28;20083;-55
2022/06/04 05:36:04;;;;;;;3.17;2.97;;;;;;;24.54;100.00;96430.50;5044146;28;20083;-56
2022/06/04 05:38:34;;;;;;;3.20;2.90;;;;;;;24.33;100.00;96428.34;5044303;28;20068;-51
2022/06/04 05:41:04;;;;;;;3.38;2.90;;;;;;;25.03;100.00;96433.75;5041170;28;20065;-53
2022/06/04 05:43:33;;;;;;;3.65;2.83;;;;;;;24.16;100.00;96422.81;5042805;28;20065;-49
2022/06/04 05:46:04;;;;;;;4.07;2.85;;;;;;;26.12;100.00;96410.50;5042947;28;20578;-53
2022/06/04 05:48:37;;;;;;;3.33;2.90;;;;;;;25.60;100.00;96410.63;5047104;28;20436;-49
2022/06/04 05:51:05;;;;;;;3.22;2.22;;;;;;;27.16;100.00;96410.81;5041199;28;20108;-49
2022/06/04 05:53:33;;;;;;;4.05;2.40;;;;;;;26.38;100.00;96415.28;5041988;28;20527;-48
2022/06/04 05:56:02;;;;;;;3.13;2.10;;;;;;;25.68;100.00;96415.66;5042385;28;20069;-51
2022/06/04 05:58:30;;;;;;;3.13;2.58;;;;;;;26.01;100.00;96426.56;5042067;28;20061;-49
2022/06/04 06:01:00;;;;;;;3.33;2.50;;;;;;;25.80;100.00;96425.38;5041537;28;20076;-55
2022/06/04 06:03:28;;;;;;;3.05;2.47;;;;;;;25.82;100.00;96438.66;5040065;28;20371;-50
2022/06/04 06:05:58;;;;;;;5.80;2.90;;;;;;;24.80;100.00;96449.97;5035860;28;20068;-53
2022/06/04 06:08:26;;;;;;;7.22;2.45;;;;;;;24.20;100.00;96450.94;5035898;28;20638;-46
2022/06/04 06:10:55;;;;;;;3.60;2.60;;;;;;;24.66;100.00;96440.47;5039273;28;20064;-53
2022/06/04 06:13:23;;;;;;;3.22;2.55;;;;;;;25.12;100.00;96439.66;5040443;28;20561;-51
2022/06/04 06:15:51;;;;;;;4.45;2.92;;;;;;;24.93;100.00;96443.50;5039612;28;20080;-53
2022/06/04 06:18:20;;;;;;;4.82;2.90;;;;;;;25.32;100.00;96428.44;5043371;28;20122;-52
2022/06/04 06:20:48;;;;;;;3.67;3.30;;;;;;;24.62;100.00;96443.63;5045128;28;20108;-49
2022/06/04 06:23:24;;;;;;;4.90;3.13;;;;;;;25.03;100.00;96435.63;5040790;28;20048;-47
2022/06/04 06:25:52;;;;;;;6.95;3.30;;;;;;;25.22;100.00;96433.63;5040760;28;20068;-46
2022/06/04 06:28:20;;;;;;;5.65;3.20;;;;;;;25.23;100.00;96435.28;5045283;28;20060;-52
2022/06/04 06:30:57;;;;;;;4.15;3.40;;;;;;;25.82;100.00;96440.53;5048814;28;20084;-52
2022/06/04 06:33:26;;;;;;;5.38;3.58;;;;;;;25.09;100.00;96448.19;5044132;28;20069;-53
2022/06/04 06:35:58;;;;;;;4.40;3.30;;;;;;;25.11;100.00;96456.88;5041699;28;20065;-56
2022/06/04 06:38:28;;;;;;;3.53;3.22;;;;;;;25.37;100.00;96457.44;5044627;28;20069;-48
2022/06/04 06:40:58;;;;;;;4.05;3.50;;;;;;;25.01;100.00;96460.16;5042347;28;20065;-50
2022/06/04 06:43:32;;;;;;;4.63;3.40;;;;;;;24.85;100.00;96460.88;5044273;28;20057;-50
2022/06/04 06:46:04;;;;;;;5.40;3.70;;;;;;;24.28;100.00;96465.94;5044842;28;20127;-50
2022/06/04 06:48:34;;;;;;;5.35;3.58;;;;;;;24.19;100.00;96475.41;5048769;28;20085;-51
2022/06/04 06:51:06;;;;;;;4.03;3.63;;;;;;;23.92;100.00;96492.78;5047699;28;20071;-49
2022/06/04 06:53:36;;;;;;;5.00;3.67;;;;;;;23.60;100.00;96485.91;5045041;28;20083;-49
2022/06/04 06:56:12;;;;;;;7.85;4.20;;;;;;;23.93;100.00;96482.81;5047240;28;20472;-50
2022/06/04 06:58:40;;;;;;;5.07;3.80;;;;;;;24.20;100.00;96480.56;5045923;28;20057;-50
2022/06/04 07:01:09;;;;;;;5.88;4.07;;;;;;;24.00;100.00;96488.94;5044604;28;20099;-48
2022/06/04 07:03:38;;;;;;;8.25;4.40;;;;;;;23.29;100.00;96494.97;5046753;28;20087;-53
2022/06/04 07:06:09;;;;;;;6.35;4.30;;;;;;;23.97;100.00;96484.00;5046360;28;20069;-49
2022/06/04 07:08:40;;;;;;;7.22;4.32;;;;;;;23.77;100.00;96489.66;5044416;28;20075;-49
2022/06/04 07:11:09;;;;;;;6.03;4.75;;;;;;;23.87;100.00;96495.31;5043385;28;20073;-47
2022/06/04 07:13:38;;;;;;;8.00;5.03;;;;;;;23.55;100.00;96497.38;5042889;28;20574;-44
2022/06/04 07:16:06;;;;;;;5.72;4.93;;;;;;;23.25;100.00;96499.97;5044630;28;20068;-44
2022/06/04 07:18:35;;;;;;;6.13;5.13;;;;;;;23.63;100.00;96498.91;5043424;28;20089;-48
2022/06/04 07:21:04;;;;;;;6.63;4.97;;;;;;;23.46;100.00;96496.00;5043130;28;20080;-48
2022/06/04 07:23:34;;;;;;;8.75;5.00;;;;;;;23.76;100.00;96497.97;5045898;28;20105;-50
2022/06/04 07:26:04;;;;;;;7.20;4.77;;;;;;;23.74;100.00;96503.56;5039700;28;20064;-46
2022/06/04 07:28:33;;;;;;;6.88;5.20;;;;;;;24.25;100.00;96501.44;5043246;28;20491;-45
2022/06/04 07:31:01;;;;;;;6.22;4.70;;;;;;;23.98;100.00;96501.78;5043172;28;20480;-48
2022/06/04 07:33:30;;;;;;;8.68;5.20;;;;;;;24.53;100.00;96506.22;5042416;28;20478;-49
2022/06/04 07:35:59;;;;;;;8.35;5.10;;;;;;;24.43;100.00;96512.16;5042917;28;20079;-51
2022/06/04 07:38:27;;;;;;;5.32;4.78;;;;;;;24.37;100.00;96527.38;5044197;28;20065;-50
2022/06/04 07:40:56;;;;;;;6.43;4.70;;;;;;;23.59;100.00;96556.97;5046664;28;20065;-49
2022/06/04 07:43:26;;;;;;;5.05;3.97;;;;;;;23.31;100.00;96592.47;5044380;28;20059;-54
2022/06/04 07:45:54;;;;;;;6.10;4.53;;;;;;;23.19;100.00;96593.19;5050012;28;20081;-48
2022/06/04 07:48:23;;;;;;;4.88;3.83;;;;;;;23.43;100.00;96586.13;5049717;28;20064;-50
2022/06/04 07:50:56;;;;;;;6.55;3.83;;;;;;;23.32;100.00;96584.16;5050790;28;20072;-47
2022/06/04 07:53:24;;;;;;;6.00;3.78;;;;;;;23.19;100.00;96586.97;5050509;28;20064;-54
2022/06/04 07:55:52;;;;;;;4.78;4.00;;;;;;;23.77;100.00;96580.41;5045343;28;20103;-47
2022/06/04 07:58:27;;;;;;;4.57;3.92;;;;;;;23.62;100.00;96570.78;5043238;28;20063;-48
2022/06/04 08:00:56;;;;;;;5.43;4.20;;;;;;;23.93;100.00;96564.44;5049204;28;20084;-45
2022/06/04 08:03:24;;;;;;;5.03;3.80;;;;;;;24.07;100.00;96548.94;5049605;28;20795;-50
2022/06/04 08:05:53;;;;;;;5.30;3.67;;;;;;;23.97;100.00;96542.44;5049926;28;20076;-48
2022/06/04 08:08:21;;;;;;;7.18;3.50;;;;;;;24.55;100.00;96536.47;5050088;28;20079;-51
2022/06/04 08:10:50;;;;;;;3.53;3.22;;;;;;;24.71;100.00;96526.88;5050216;28;20057;-52
2022/06/04 08:13:20;;;;;;;5.18;2.92;;;;;;;24.77;100.00;96515.97;5046425;28;20071;-45
2022/06/04 08:15:50;;;;;;;;;;;;;;;24.70;100.00;96503.66;5050783;28;20156;-45
2022/06/04 08:18:18;;;;;;;3.10;2.70;;;;;;;25.24;100.00;96501.69;5049459;28;19971;-46
2022/06/04 08:20:47;;;;;;;5.90;2.60;;;;;;;24.12;100.00;96505.97;5049896;28;20494;-50
2022/06/04 08:23:16;;;;;;;4.83;2.60;;;;;;;24.38;100.00;96503.94;5049240;28;20126;-52
2022/06/04 08:25:50;;;;;;;4.88;2.58;;;;;;;24.42;100.00;96515.09;5049567;28;20068;-53
2022/06/04 08:28:19;;;;;;;3.83;2.75;;;;;;;23.92;100.00;96511.63;5049220;28;20091;-54
2022/06/04 08:30:48;;;;;;;4.18;2.50;;;;;;;23.98;100.00;96514.44;5049731;28;20072;-49
2022/06/04 08:33:18;;;;;;;3.92;2.42;;;;;;;24.14;100.00;96503.84;5043210;28;20479;-47
2022/06/04 08:35:47;;;;;;;5.50;2.42;;;;;;;24.57;100.00;96510.94;5043238;28;20072;-52
2022/06/04 08:38:15;;;;;;;3.15;2.55;;;;;;;25.02;100.00;96491.50;5042410;28;20048;-53
2022/06/04 08:40:48;;;;;;;3.33;2.60;;;;;;;24.78;100.00;96485.28;5042742;28;20064;-51
2022/06/04 08:43:24;;;;;;;2.88;2.33;;;;;;;25.31;100.00;96486.19;5049109;28;20085;-53
2022/06/04 08:45:52;;;;;;;4.30;2.60;;;;;;;25.92;100.00;96478.56;5049559;28;20452;-51
2022/06/04 08:48:29;;;;;;;4.28;2.47;;;;;;;26.45;100.00;96480.84;5048495;28;21483;-52
2022/06/04 08:50:58;;;;;;;5.60;2.40;;;;;;;26.66;100.00;96471.22;5049268;28;20061;-56
2022/06/04 08:53:29;;;;;;;3.38;2.47;;;;;;;27.49;100.00;96465.91;5048360;28;20064;-52
2022/06/04 08:59:02;;;;;;;3.45;2.00;;;;;;;27.63;100.00;96456.34;5047112;28;20068;-55
2022/06/04 09:01:35;;;;;;;2.60;1.90;;;;;;;28.08;100.00;96452.53;5048785;28;20060;-55
2022/06/04 09:04:11;;;;;;;3.00;2.00;;;;;;;27.82;100.00;96447.91;5048799;28;20085;-54
2022/06/04 09:06:44;;;;;;;2.88;2.15;;;;;;;27.80;100.00;96464.41;5049789;28;20621;-49
2022/06/04 09:09:15;;;;;;;2.55;1.77;;;;;;;27.10;100.00;96484.84;5049084;28;20073;-51
2022/06/04 09:11:49;;;;;;;4.25;1.80;;;;;;;27.58;100.00;96480.66;5048820;28;20061;-49
2022/06/04 09:14:38;;;;;;;3.47;1.65;;;;;;;27.85;100.00;96463.66;5042166;28;20065;-54
2022/06/04 09:17:11;;;;;;;5.18;2.08;;;;;;;28.14;100.00;96454.19;5048549;28;20076;-53
2022/06/04 09:19:49;;;;;;;4.00;2.03;;;;;;;28.24;100.00;96458.09;5051165;28;20550;-53
2022/06/04 09:22:21;;;;;;;3.58;1.80;;;;;;;27.43;100.00;96481.28;5048324;28;20480;-44
2022/06/04 09:24:49;;;;;;;1.95;1.67;;;;;;;26.94;100.00;96491.09;5048577;28;20088;-45
2022/06/04 09:27:26;;;;;;;3.58;2.00;;;;;;;27.25;100.00;96488.88;5048262;28;20056;-48
2022/06/04 09:30:17;;;;;;;4.20;2.00;;;;;;;26.86;100.00;96483.41;5045294;28;20076;-47
2022/06/04 09:32:52;;;;;;;4.95;1.90;;;;;;;26.95;100.00;96476.53;5047720;28;20065;-48
2022/06/04 09:35:26;;;;;;;3.13;1.90;;;;;;;26.82;100.00;96482.28;5046321;28;20068;-55
2022/06/04 09:37:55;;;;;;;3.60;2.03;;;;;;;26.97;100.00;96477.91;5048700;28;20071;-51
2022/06/04 09:40:26;;;;;;;2.88;1.95;;;;;;;27.00;100.00;96484.72;5046871;28;20092;-53
2022/06/04 09:43:05;;;;;;;4.55;1.88;;;;;;;26.78;100.00;96483.84;5043596;28;20821;-55
2022/06/04 09:45:56;;;;;;;3.50;2.22;;;;;;;27.01;100.00;96489.06;5043692;28;20469;-51
2022/06/04 09:48:28;;;;;;;5.82;2.00;;;;;;;26.27;100.00;96483.78;5046674;28;20076;-52
2022/06/04 09:51:05;;;;;;;4.15;2.17;;;;;;;26.45;100.00;96488.16;5046332;28;20075;-51
2022/06/04 09:53:35;;;;;;;6.18;2.42;;;;;;;26.21;100.00;96484.75;5043274;28;20148;-50
2022/06/04 09:56:08;;;;;;;3.92;2.88;;;;;;;25.92;100.00;96490.19;5051497;28;20455;-49
2022/06/04 09:58:37;;;;;;;5.85;2.40;;;;;;;25.70;100.00;96498.06;5050040;28;20057;-49
2022/06/04 10:01:07;;;;;;;4.35;2.65;;;;;;;26.44;100.00;96497.31;5052295;28;20080;-49
2022/06/04 10:03:38;;;;;;;4.28;2.70;;;;;;;26.58;100.00;96497.88;5049106;28;20076;-50
2022/06/04 10:06:11;;;;;;;5.95;2.90;;;;;;;26.60;100.00;96501.97;5046765;28;20423;-49
2022/06/04 10:11:34;;;;;;;3.95;2.83;;;;;;;26.84;100.00;96493.66;5050379;28;20068;-53
2022/06/04 10:14:03;;;;;;;3.53;3.08;;;;;;;27.41;100.00;96491.53;5050528;28;20582;-49
2022/06/04 10:16:40;;;;;;;4.90;3.25;;;;;;;26.91;100.00;96486.19;5052348;28;20076;-50
2022/06/04 10:19:17;;;;;;;4.68;3.17;;;;;;;27.19;100.00;96494.25;5051993;28;20072;-47
2022/06/04 10:21:49;;;;;;;4.75;3.28;;;;;;;26.94;100.00;96491.09;5052384;28;20482;-46
2022/06/04 10:24:22;;;;;;;3.17;2.88;;;;;;;27.61;100.00;96491.00;5051189;28;20763;-51
2022/06/04 10:27:03;;;;;;;5.55;3.00;;;;;;;27.82;100.00;96475.00;5051859;28;20077;-53
2022/06/04 10:30:16;;;;;;;6.13;3.67;;;;;;;27.98;100.00;96473.25;5043851;28;20069;-48
2022/06/04 10:32:54;;;;;;;6.18;3.53;;;;;;;28.49;100.00;96473.78;4954534;28;20059;-54
2022/06/04 10:35:35;;;;;;;5.07;3.35;;;;;;;28.17;100.00;96458.28;4955881;28;20070;-53
2022/06/04 10:38:13;;;;;;;6.90;3.95;;;;;;;28.53;100.00;96464.09;5009161;28;20073;-53
2022/06/04 10:40:50;;;;;;;5.75;3.80;;;;;;;28.61;100.00;96472.56;5050355;28;20065;-55
2022/06/04 10:44:12;;;;;;;5.47;3.72;;;;;;;27.96;100.00;96473.53;5051424;28;20515;-51
2022/06/04 10:46:45;;;;;;;8.68;3.90;;;;;;;28.15;100.00;96468.59;5048054;28;20068;-48
2022/06/04 10:49:36;;;;;;;8.80;3.72;;;;;;;28.03;100.00;96476.03;5048352;28;20077;-49
2022/06/04 10:52:15;;;;;;;5.35;3.58;;;;;;;28.50;100.00;96473.56;5051620;28;20084;-51
2022/06/04 10:54:49;;;;;;;5.25;3.63;;;;;;;27.98;100.00;96468.69;5050507;28;20081;-53
2022/06/04 10:57:23;;;;;;;4.32;3.33;;;;;;;29.43;100.00;96470.41;5051701;28;20063;-50
2022/06/04 10:59:55;;;;;;;4.93;3.45;;;;;;;29.63;100.00;96472.41;5049483;28;20151;-54
2022/06/04 11:02:28;;;;;;;4.85;3.60;;;;;;;29.48;100.00;96461.44;5050511;28;20072;-49
2022/06/04 11:05:01;;;;;;;6.07;3.60;;;;;;;29.71;100.00;96454.78;5042868;28;20064;-51
2022/06/04 11:07:36;;;;;;;6.68;4.13;;;;;;;29.71;100.00;96457.50;5050131;28;20523;-50
2022/06/04 11:10:11;;;;;;;5.07;3.72;;;;;;;29.77;100.00;96448.28;5044344;28;20072;-48
2022/06/04 11:12:43;;;;;;;6.03;3.92;;;;;;;29.55;100.00;96451.13;5051915;28;20446;-56
2022/06/04 11:15:16;;;;;;;5.80;3.60;;;;;;;29.42;100.00;96448.91;5046561;28;20064;-50
2022/06/04 11:17:49;;;;;;;5.97;3.67;;;;;;;29.17;100.00;96446.88;5050729;28;20075;-53
2022/06/04 11:20:20;;;;;;;5.35;3.50;;;;;;;29.53;100.00;96434.31;5047084;28;20069;-51
2022/06/04 11:22:54;;;;;;;5.47;4.38;;;;;;;29.65;100.00;96434.91;5050566;28;20068;-49
2022/06/04 11:25:27;;;;;;;6.25;4.35;;;;;;;30.08;100.00;96432.03;5046045;28;20064;-47
2022/06/04 11:27:58;;;;;;;5.50;4.07;;;;;;;30.07;100.00;96435.81;5051198;28;20081;-50
2022/06/04 11:30:36;;;;;;;5.95;4.13;;;;;;;30.47;100.00;96425.00;5049958;28;20492;-52
2022/06/04 11:33:15;;;;;;;4.20;3.65;;;;;;;29.90;100.00;96425.19;5043945;28;20068;-49
2022/06/04 11:35:45;;;;;;;5.25;4.32;;;;;;;29.60;100.00;96423.22;5049435;28;20080;-48
2022/06/04 11:38:32;;;;;;;5.43;4.07;;;;;;;29.46;100.00;96423.69;5050777;28;20072;-54
2022/06/04 11:41:11;;;;;;;6.63;4.10;;;;;;;29.31;100.00;96426.31;5050353;28;20057;-50
2022/06/04 11:43:52;;;;;;;4.70;4.00;;;;;;;29.59;100.00;96425.09;5045367;28;20062;-51
2022/06/04 11:46:29;;;;;;;8.18;3.97;;;;;;;29.80;100.00;96424.09;5047789;28;20061;-49
2022/06/04 11:49:08;;;;;;;6.25;4.00;;;;;;;29.82;100.00;96421.09;5050232;28;20455;-56
2022/06/04 11:51:50;;;;;;;7.47;4.50;;;;;;;29.95;100.00;96425.22;5050608;28;20077;-50
2022/06/04 11:54:29;;;;;;;5.22;4.20;;;;;;;29.42;100.00;96432.59;5046882;28;20088;-46
2022/06/04 11:57:05;;;;;;;6.88;4.30;;;;;;;29.13;100.00;96432.22;5044447;28;20068;-54
2022/06/04 11:59:42;;;;;;;5.40;3.83;;;;;;;29.43;100.00;96428.81;5046486;28;20153;-49
2022/06/04 12:02:15;;;;;;;8.05;4.32;;;;;;;29.56;100.00;96412.03;5049327;28;20561;-49
2022/06/04 12:04:59;;;;;;;5.63;4.15;;;;;;;29.19;100.00;96420.31;5047772;28;20064;-50